sensor_id;sensor_type;location;lat;lon;timestamp;temperature;humidity
7192;DHT22;3637;51.494;11.958;2022-12-07T00:00:08;3.30;99.90
7192;DHT22;3637;51.494;11.958;2022-12-07T00:03:10;3.30;99.90
7192;DHT22;3637;51.494;11.958;2022-12-07T00:06:13;3.20;99.90
7192;DHT22;3637;51.494;11.958;2022-12-07T00:09:17;3.20;99.90
7192;DHT22;3637;51.494;11.958;2022-12-07T00:12:19;3.20;99.90
7192;DHT22;3637;51.494;11.958;2022-12-07T00:15:21;3.30;99.90
7192;DHT22;3637;51.494;11.958;2022-12-07T00:18:23;3.30;99.90
7192;DHT22;3637;51.494;11.958;2022-12-07T00:21:27;3.80;99.90
7192;DHT22;3637;51.494;11.958;2022-12-07T00:24:30;3.40;99.90
7192;DHT22;3637;51.494;11.958;2022-12-07T00:27:32;3.30;99.90
7192;DHT22;3637;51.494;11.958;2022-12-07T00:30:34;3.30;99.90
7192;DHT22;3637;51.494;11.958;2022-12-07T00:33:36;3.30;99.90
7192;DHT22;3637;51.494;11.958;2022-12-07T00:36:38;3.70;99.90
7192;DHT22;3637;51.494;11.958;2022-12-07T00:39:41;3.20;99.90
7192;DHT22;3637;51.494;11.958;2022-12-07T00:42:43;3.20;99.90
7192;DHT22;3637;51.494;11.958;2022-12-07T00:45:45;3.30;99.90
7192;DHT22;3637;51.494;11.958;2022-12-07T00:48:48;3.10;99.90
7192;DHT22;3637;51.494;11.958;2022-12-07T00:51:50;3.10;99.90
7192;DHT22;3637;51.494;11.958;2022-12-07T00:54:53;3.10;99.90
7192;DHT22;3637;51.494;11.958;2022-12-07T00:57:55;3.10;99.90
7192;DHT22;3637;51.494;11.958;2022-12-07T01:00:59;3.00;99.90
7192;DHT22;3637;51.494;11.958;2022-12-07T01:04:02;3.40;99.90
7192;DHT22;3637;51.494;11.958;2022-12-07T01:07:04;3.00;99.90
7192;DHT22;3637;51.494;11.958;2022-12-07T01:10:08;3.10;99.90
7192;DHT22;3637;51.494;11.958;2022-12-07T01:13:10;3.10;99.90
7192;DHT22;3637;51.494;11.958;2022-12-07T01:16:14;3.00;99.90
7192;DHT22;3637;51.494;11.958;2022-12-07T01:19:16;2.90;99.90
7192;DHT22;3637;51.494;11.958;2022-12-07T01:22:18;2.90;99.90
7192;DHT22;3637;51.494;11.958;2022-12-07T01:25:21;2.90;99.90
7192;DHT22;3637;51.494;11.958;2022-12-07T01:28:23;2.90;99.90
7192;DHT22;3637;51.494;11.958;2022-12-07T01:31:27;2.80;99.90
7192;DHT22;3637;51.494;11.958;2022-12-07T01:34:29;2.80;99.90
7192;DHT22;3637;51.494;11.958;2022-12-07T01:37:34;3.10;99.90
7192;DHT22;3637;51.494;11.958;2022-12-07T01:40:38;2.70;99.90
7192;DHT22;3637;51.494;11.958;2022-12-07T01:44:15;3.40;99.90
7192;DHT22;3637;51.494;11.958;2022-12-07T01:47:17;2.70;99.90
7192;DHT22;3637;51.494;11.958;2022-12-07T01:50:20;2.60;99.90
7192;DHT22;3637;51.494;11.958;2022-12-07T01:53:25;2.60;99.90
7192;DHT22;3637;51.494;11.958;2022-12-07T01:56:29;2.60;99.90
7192;DHT22;3637;51.494;11.958;2022-12-07T01:59:32;2.80;99.90
7192;DHT22;3637;51.494;11.958;2022-12-07T02:02:37;2.60;99.90
7192;DHT22;3637;51.494;11.958;2022-12-07T02:05:41;2.60;99.90
7192;DHT22;3637;51.494;11.958;2022-12-07T02:08:43;2.60;99.90
7192;DHT22;3637;51.494;11.958;2022-12-07T02:11:47;2.60;99.90
7192;DHT22;3637;51.494;11.958;2022-12-07T02:14:49;2.60;99.90
7192;DHT22;3637;51.494;11.958;2022-12-07T02:17:58;2.70;99.90
7192;DHT22;3637;51.494;11.958;2022-12-07T02:21:07;3.00;99.90
7192;DHT22;3637;51.494;11.958;2022-12-07T02:24:19;2.50;99.90
7192;DHT22;3637;51.494;11.958;2022-12-07T02:27:45;2.60;99.90
7192;DHT22;3637;51.494;11.958;2022-12-07T02:30:50;2.70;99.90
7192;DHT22;3637;51.494;11.958;2022-12-07T02:33:59;2.80;99.90
7192;DHT22;3637;51.494;11.958;2022-12-07T02:37:10;2.80;99.90
7192;DHT22;3637;51.494;11.958;2022-12-07T02:40:18;2.80;99.90
7192;DHT22;3637;51.494;11.958;2022-12-07T02:43:24;2.80;99.90
7192;DHT22;3637;51.494;11.958;2022-12-07T02:46:33;2.80;99.90
7192;DHT22;3637;51.494;11.958;2022-12-07T02:49:37;2.90;99.90
7192;DHT22;3637;51.494;11.958;2022-12-07T02:52:40;2.80;99.90
7192;DHT22;3637;51.494;11.958;2022-12-07T02:55:42;3.30;99.90
7192;DHT22;3637;51.494;11.958;2022-12-07T02:58:50;2.90;99.90
7192;DHT22;3637;51.494;11.958;2022-12-07T03:02:07;2.90;99.90
7192;DHT22;3637;51.494;11.958;2022-12-07T03:09:06;2.90;99.90
7192;DHT22;3637;51.494;11.958;2022-12-07T03:12:10;2.90;99.90
7192;DHT22;3637;51.494;11.958;2022-12-07T03:15:18;2.90;99.90
7192;DHT22;3637;51.494;11.958;2022-12-07T03:18:25;2.90;99.90
7192;DHT22;3637;51.494;11.958;2022-12-07T03:21:32;3.00;99.90
7192;DHT22;3637;51.494;11.958;2022-12-07T03:24:40;3.10;99.90
7192;DHT22;3637;51.494;11.958;2022-12-07T03:27:45;3.80;99.90
7192;DHT22;3637;51.494;11.958;2022-12-07T03:30:52;3.10;99.90
7192;DHT22;3637;51.494;11.958;2022-12-07T03:34:01;3.20;99.90
7192;DHT22;3637;51.494;11.958;2022-12-07T03:37:07;3.30;99.90
7192;DHT22;3637;51.494;11.958;2022-12-07T03:40:14;3.70;99.90
7192;DHT22;3637;51.494;11.958;2022-12-07T03:43:17;3.20;99.90
7192;DHT22;3637;51.494;11.958;2022-12-07T03:46:27;4.00;99.90
7192;DHT22;3637;51.494;11.958;2022-12-07T03:49:40;3.90;99.90
7192;DHT22;3637;51.494;11.958;2022-12-07T03:52:47;3.40;99.90
7192;DHT22;3637;51.494;11.958;2022-12-07T03:55:54;3.50;99.90
7192;DHT22;3637;51.494;11.958;2022-12-07T03:58:57;3.50;99.90
7192;DHT22;3637;51.494;11.958;2022-12-07T04:02:02;3.50;99.90
7192;DHT22;3637;51.494;11.958;2022-12-07T04:05:07;3.50;99.90
7192;DHT22;3637;51.494;11.958;2022-12-07T04:08:09;3.50;99.90
7192;DHT22;3637;51.494;11.958;2022-12-07T04:11:11;3.50;99.90
7192;DHT22;3637;51.494;11.958;2022-12-07T04:14:13;3.60;99.90
7192;DHT22;3637;51.494;11.958;2022-12-07T04:17:21;3.60;99.90
7192;DHT22;3637;51.494;11.958;2022-12-07T04:20:24;3.60;99.90
7192;DHT22;3637;51.494;11.958;2022-12-07T04:23:28;3.60;99.90
7192;DHT22;3637;51.494;11.958;2022-12-07T04:26:30;3.40;99.90
7192;DHT22;3637;51.494;11.958;2022-12-07T04:29:31;3.70;99.90
7192;DHT22;3637;51.494;11.958;2022-12-07T04:32:33;3.40;99.90
7192;DHT22;3637;51.494;11.958;2022-12-07T04:35:37;3.70;99.90
7192;DHT22;3637;51.494;11.958;2022-12-07T04:38:38;3.60;99.90
7192;DHT22;3637;51.494;11.958;2022-12-07T04:41:40;3.50;99.90
7192;DHT22;3637;51.494;11.958;2022-12-07T04:44:42;3.50;99.90
7192;DHT22;3637;51.494;11.958;2022-12-07T04:47:45;3.50;99.90
7192;DHT22;3637;51.494;11.958;2022-12-07T04:50:49;3.60;99.90
7192;DHT22;3637;51.494;11.958;2022-12-07T04:53:51;3.50;99.90
7192;DHT22;3637;51.494;11.958;2022-12-07T04:56:53;3.60;99.90
7192;DHT22;3637;51.494;11.958;2022-12-07T04:59:55;3.60;99.90
7192;DHT22;3637;51.494;11.958;2022-12-07T05:02:57;3.60;99.90
7192;DHT22;3637;51.494;11.958;2022-12-07T05:06:00;4.10;99.90
7192;DHT22;3637;51.494;11.958;2022-12-07T05:09:03;3.50;99.90
7192;DHT22;3637;51.494;11.958;2022-12-07T05:12:05;3.50;99.90
7192;DHT22;3637;51.494;11.958;2022-12-07T05:15:07;3.60;99.90
7192;DHT22;3637;51.494;11.958;2022-12-07T05:18:09;3.60;99.90
7192;DHT22;3637;51.494;11.958;2022-12-07T05:21:14;3.50;99.90
7192;DHT22;3637;51.494;11.958;2022-12-07T05:24:16;3.80;99.90
7192;DHT22;3637;51.494;11.958;2022-12-07T05:27:18;3.50;99.90
7192;DHT22;3637;51.494;11.958;2022-12-07T05:30:20;3.40;99.90
7192;DHT22;3637;51.494;11.958;2022-12-07T05:33:22;3.30;99.90
7192;DHT22;3637;51.494;11.958;2022-12-07T05:36:25;3.20;99.90
7192;DHT22;3637;51.494;11.958;2022-12-07T05:39:29;3.60;99.90
7192;DHT22;3637;51.494;11.958;2022-12-07T05:42:30;3.20;99.90
7192;DHT22;3637;51.494;11.958;2022-12-07T05:45:32;3.20;99.90
7192;DHT22;3637;51.494;11.958;2022-12-07T05:48:36;3.30;99.90
7192;DHT22;3637;51.494;11.958;2022-12-07T05:51:40;3.40;99.90
7192;DHT22;3637;51.494;11.958;2022-12-07T05:54:42;3.20;99.90
7192;DHT22;3637;51.494;11.958;2022-12-07T05:57:44;3.20;99.90
7192;DHT22;3637;51.494;11.958;2022-12-07T06:01:05;3.20;99.90
7192;DHT22;3637;51.494;11.958;2022-12-07T06:04:06;3.10;99.90
7192;DHT22;3637;51.494;11.958;2022-12-07T06:07:12;3.10;99.90
7192;DHT22;3637;51.494;11.958;2022-12-07T06:10:14;3.10;99.90
7192;DHT22;3637;51.494;11.958;2022-12-07T06:13:16;3.10;99.90
7192;DHT22;3637;51.494;11.958;2022-12-07T06:16:17;3.10;99.90
7192;DHT22;3637;51.494;11.958;2022-12-07T06:19:19;3.20;99.90
7192;DHT22;3637;51.494;11.958;2022-12-07T06:22:22;3.10;99.90
7192;DHT22;3637;51.494;11.958;2022-12-07T06:25:24;3.50;99.90
7192;DHT22;3637;51.494;11.958;2022-12-07T06:28:29;3.10;99.90
7192;DHT22;3637;51.494;11.958;2022-12-07T06:31:31;3.10;99.90
7192;DHT22;3637;51.494;11.958;2022-12-07T06:34:33;3.10;99.90
7192;DHT22;3637;51.494;11.958;2022-12-07T06:37:36;2.80;99.90
7192;DHT22;3637;51.494;11.958;2022-12-07T06:40:38;4.40;99.90
7192;DHT22;3637;51.494;11.958;2022-12-07T06:43:40;3.00;99.90
7192;DHT22;3637;51.494;11.958;2022-12-07T06:46:42;4.20;99.90
7192;DHT22;3637;51.494;11.958;2022-12-07T06:49:44;3.20;99.90
7192;DHT22;3637;51.494;11.958;2022-12-07T06:52:47;3.00;99.90
7192;DHT22;3637;51.494;11.958;2022-12-07T06:55:50;3.00;99.90
7192;DHT22;3637;51.494;11.958;2022-12-07T06:58:51;3.40;99.90
7192;DHT22;3637;51.494;11.958;2022-12-07T07:01:53;3.20;99.90
7192;DHT22;3637;51.494;11.958;2022-12-07T07:04:55;3.80;99.90
7192;DHT22;3637;51.494;11.958;2022-12-07T07:07:59;3.10;99.90
7192;DHT22;3637;51.494;11.958;2022-12-07T07:11:01;3.10;99.90
7192;DHT22;3637;51.494;11.958;2022-12-07T07:14:03;3.20;99.90
7192;DHT22;3637;51.494;11.958;2022-12-07T07:17:05;3.20;99.90
7192;DHT22;3637;51.494;11.958;2022-12-07T07:20:07;3.20;99.90
7192;DHT22;3637;51.494;11.958;2022-12-07T07:23:11;3.20;99.90
7192;DHT22;3637;51.494;11.958;2022-12-07T07:26:13;3.80;99.90
7192;DHT22;3637;51.494;11.958;2022-12-07T07:29:15;3.50;99.90
7192;DHT22;3637;51.494;11.958;2022-12-07T07:32:17;3.20;99.90
7192;DHT22;3637;51.494;11.958;2022-12-07T07:35:18;4.00;99.90
7192;DHT22;3637;51.494;11.958;2022-12-07T07:38:22;3.40;99.90
7192;DHT22;3637;51.494;11.958;2022-12-07T07:41:24;4.00;99.90
7192;DHT22;3637;51.494;11.958;2022-12-07T07:44:25;3.80;99.90
7192;DHT22;3637;51.494;11.958;2022-12-07T07:47:30;3.40;99.90
7192;DHT22;3637;51.494;11.958;2022-12-07T07:50:32;4.60;99.90
7192;DHT22;3637;51.494;11.958;2022-12-07T07:53:36;3.40;99.90
7192;DHT22;3637;51.494;11.958;2022-12-07T07:56:37;3.40;99.90
7192;DHT22;3637;51.494;11.958;2022-12-07T07:59:39;3.40;99.90
7192;DHT22;3637;51.494;11.958;2022-12-07T08:02:42;3.40;99.90
7192;DHT22;3637;51.494;11.958;2022-12-07T08:05:44;3.40;99.90
7192;DHT22;3637;51.494;11.958;2022-12-07T08:08:47;3.40;99.90
7192;DHT22;3637;51.494;11.958;2022-12-07T08:11:49;3.40;99.90
7192;DHT22;3637;51.494;11.958;2022-12-07T08:14:51;3.50;99.90
7192;DHT22;3637;51.494;11.958;2022-12-07T08:17:53;3.90;99.90
7192;DHT22;3637;51.494;11.958;2022-12-07T08:20:59;4.30;99.90
7192;DHT22;3637;51.494;11.958;2022-12-07T08:24:04;3.70;99.90
7192;DHT22;3637;51.494;11.958;2022-12-07T08:27:06;3.60;99.90
7192;DHT22;3637;51.494;11.958;2022-12-07T08:30:08;3.80;99.90
7192;DHT22;3637;51.494;11.958;2022-12-07T08:33:10;3.90;99.90
7192;DHT22;3637;51.494;11.958;2022-12-07T08:36:13;3.80;99.90
7192;DHT22;3637;51.494;11.958;2022-12-07T08:39:16;4.20;99.90
7192;DHT22;3637;51.494;11.958;2022-12-07T08:42:18;4.30;99.90
7192;DHT22;3637;51.494;11.958;2022-12-07T08:45:22;4.30;99.90
7192;DHT22;3637;51.494;11.958;2022-12-07T08:48:25;4.40;99.90
7192;DHT22;3637;51.494;11.958;2022-12-07T08:51:27;4.10;99.90
7192;DHT22;3637;51.494;11.958;2022-12-07T08:54:31;4.10;99.90
7192;DHT22;3637;51.494;11.958;2022-12-07T08:57:36;4.00;99.90
7192;DHT22;3637;51.494;11.958;2022-12-07T09:00:38;4.50;99.90
7192;DHT22;3637;51.494;11.958;2022-12-07T09:03:40;4.40;99.90
7192;DHT22;3637;51.494;11.958;2022-12-07T09:06:42;4.30;99.90
7192;DHT22;3637;51.494;11.958;2022-12-07T09:09:45;3.90;99.90
7192;DHT22;3637;51.494;11.958;2022-12-07T09:12:47;4.20;99.90
7192;DHT22;3637;51.494;11.958;2022-12-07T09:15:49;3.80;99.90
7192;DHT22;3637;51.494;11.958;2022-12-07T09:18:51;3.90;99.90
7192;DHT22;3637;51.494;11.958;2022-12-07T09:21:53;4.50;99.90
7192;DHT22;3637;51.494;11.958;2022-12-07T09:24:57;3.80;99.90
7192;DHT22;3637;51.494;11.958;2022-12-07T09:27:59;3.90;99.90
7192;DHT22;3637;51.494;11.958;2022-12-07T09:31:02;4.30;99.90
7192;DHT22;3637;51.494;11.958;2022-12-07T09:34:04;4.10;99.90
7192;DHT22;3637;51.494;11.958;2022-12-07T09:37:07;4.10;99.90
7192;DHT22;3637;51.494;11.958;2022-12-07T09:40:12;4.20;99.90
7192;DHT22;3637;51.494;11.958;2022-12-07T09:43:16;4.20;99.90
7192;DHT22;3637;51.494;11.958;2022-12-07T09:46:20;4.20;99.90
7192;DHT22;3637;51.494;11.958;2022-12-07T09:49:24;4.20;99.90
7192;DHT22;3637;51.494;11.958;2022-12-07T09:52:28;4.20;99.90
7192;DHT22;3637;51.494;11.958;2022-12-07T09:55:33;4.40;99.90
7192;DHT22;3637;51.494;11.958;2022-12-07T09:58:38;5.00;99.90
7192;DHT22;3637;51.494;11.958;2022-12-07T10:01:40;4.40;99.90
7192;DHT22;3637;51.494;11.958;2022-12-07T10:04:44;5.00;99.90
7192;DHT22;3637;51.494;11.958;2022-12-07T10:07:49;4.90;99.90
7192;DHT22;3637;51.494;11.958;2022-12-07T10:10:53;5.00;99.90
7192;DHT22;3637;51.494;11.958;2022-12-07T10:14:10;4.40;99.90
7192;DHT22;3637;51.494;11.958;2022-12-07T10:17:30;4.50;99.90
7192;DHT22;3637;51.494;11.958;2022-12-07T10:20:32;4.50;99.90
7192;DHT22;3637;51.494;11.958;2022-12-07T10:23:34;4.60;99.90
7192;DHT22;3637;51.494;11.958;2022-12-07T10:26:41;4.90;99.90
7192;DHT22;3637;51.494;11.958;2022-12-07T10:29:52;5.60;99.90
7192;DHT22;3637;51.494;11.958;2022-12-07T10:32:54;5.30;99.90
7192;DHT22;3637;51.494;11.958;2022-12-07T10:35:56;4.90;99.90
7192;DHT22;3637;51.494;11.958;2022-12-07T10:39:01;5.00;99.90
7192;DHT22;3637;51.494;11.958;2022-12-07T10:42:07;4.80;99.90
7192;DHT22;3637;51.494;11.958;2022-12-07T10:45:18;5.10;99.90
7192;DHT22;3637;51.494;11.958;2022-12-07T10:48:26;4.70;99.90
7192;DHT22;3637;51.494;11.958;2022-12-07T10:51:37;4.60;99.90
7192;DHT22;3637;51.494;11.958;2022-12-07T10:54:45;4.60;99.90
7192;DHT22;3637;51.494;11.958;2022-12-07T10:58:04;5.80;99.90
7192;DHT22;3637;51.494;11.958;2022-12-07T11:01:18;4.90;99.90
7192;DHT22;3637;51.494;11.958;2022-12-07T11:04:32;4.70;99.90
7192;DHT22;3637;51.494;11.958;2022-12-07T11:07:42;5.20;99.90
7192;DHT22;3637;51.494;11.958;2022-12-07T11:10:52;5.40;99.90
7192;DHT22;3637;51.494;11.958;2022-12-07T11:14:03;4.90;99.90
7192;DHT22;3637;51.494;11.958;2022-12-07T11:17:11;4.90;99.90
7192;DHT22;3637;51.494;11.958;2022-12-07T11:20:34;4.90;99.90
7192;DHT22;3637;51.494;11.958;2022-12-07T11:23:46;4.90;99.90
7192;DHT22;3637;51.494;11.958;2022-12-07T11:27:08;4.80;99.90
7192;DHT22;3637;51.494;11.958;2022-12-07T11:30:18;4.90;99.90
7192;DHT22;3637;51.494;11.958;2022-12-07T11:33:27;5.00;99.90
7192;DHT22;3637;51.494;11.958;2022-12-07T11:36:36;5.00;99.90
7192;DHT22;3637;51.494;11.958;2022-12-07T11:39:43;5.90;99.90
7192;DHT22;3637;51.494;11.958;2022-12-07T11:42:52;5.50;99.90
7192;DHT22;3637;51.494;11.958;2022-12-07T11:46:02;5.50;99.90
7192;DHT22;3637;51.494;11.958;2022-12-07T11:49:11;5.50;99.90
7192;DHT22;3637;51.494;11.958;2022-12-07T11:52:20;5.10;99.90
7192;DHT22;3637;51.494;11.958;2022-12-07T11:55:29;5.70;99.90
7192;DHT22;3637;51.494;11.958;2022-12-07T11:58:39;5.50;99.90
7192;DHT22;3637;51.494;11.958;2022-12-07T12:01:52;5.30;99.90
7192;DHT22;3637;51.494;11.958;2022-12-07T12:04:58;5.70;99.90
7192;DHT22;3637;51.494;11.958;2022-12-07T12:08:10;5.40;99.90
7192;DHT22;3637;51.494;11.958;2022-12-07T12:11:26;5.50;99.90
7192;DHT22;3637;51.494;11.958;2022-12-07T12:14:41;5.40;99.90
7192;DHT22;3637;51.494;11.958;2022-12-07T12:18:10;6.20;99.90
7192;DHT22;3637;51.494;11.958;2022-12-07T12:21:16;5.50;99.90
7192;DHT22;3637;51.494;11.958;2022-12-07T12:24:22;5.50;99.90
7192;DHT22;3637;51.494;11.958;2022-12-07T12:27:28;4.40;99.90
7192;DHT22;3637;51.494;11.958;2022-12-07T12:30:35;5.50;99.90
7192;DHT22;3637;51.494;11.958;2022-12-07T12:33:43;5.80;99.90
7192;DHT22;3637;51.494;11.958;2022-12-07T12:36:46;5.40;99.90
7192;DHT22;3637;51.494;11.958;2022-12-07T12:43:50;5.40;99.90
7192;DHT22;3637;51.494;11.958;2022-12-07T12:46:53;5.50;99.90
7192;DHT22;3637;51.494;11.958;2022-12-07T12:50:17;5.50;99.90
7192;DHT22;3637;51.494;11.958;2022-12-07T12:53:24;5.50;99.90
7192;DHT22;3637;51.494;11.958;2022-12-07T12:56:37;5.50;99.90
7192;DHT22;3637;51.494;11.958;2022-12-07T12:59:41;6.20;99.90
7192;DHT22;3637;51.494;11.958;2022-12-07T13:02:50;6.00;99.90
7192;DHT22;3637;51.494;11.958;2022-12-07T13:06:20;5.80;99.90
7192;DHT22;3637;51.494;11.958;2022-12-07T13:09:34;5.50;99.90
7192;DHT22;3637;51.494;11.958;2022-12-07T13:12:37;5.50;99.90
7192;DHT22;3637;51.494;11.958;2022-12-07T13:15:43;5.20;99.90
7192;DHT22;3637;51.494;11.958;2022-12-07T13:18:46;5.40;99.90
7192;DHT22;3637;51.494;11.958;2022-12-07T13:21:49;5.30;99.90
7192;DHT22;3637;51.494;11.958;2022-12-07T13:24:58;5.40;99.90
7192;DHT22;3637;51.494;11.958;2022-12-07T13:28:07;5.80;99.90
7192;DHT22;3637;51.494;11.958;2022-12-07T13:31:20;5.40;99.90
7192;DHT22;3637;51.494;11.958;2022-12-07T13:34:30;5.40;99.90
7192;DHT22;3637;51.494;11.958;2022-12-07T13:37:33;5.30;99.90
7192;DHT22;3637;51.494;11.958;2022-12-07T13:40:36;5.30;99.90
7192;DHT22;3637;51.494;11.958;2022-12-07T13:43:51;5.20;99.90
7192;DHT22;3637;51.494;11.958;2022-12-07T13:46:58;6.60;99.90
7192;DHT22;3637;51.494;11.958;2022-12-07T13:50:20;5.30;99.90
7192;DHT22;3637;51.494;11.958;2022-12-07T13:53:25;5.20;99.90
7192;DHT22;3637;51.494;11.958;2022-12-07T13:56:32;6.50;99.90
7192;DHT22;3637;51.494;11.958;2022-12-07T13:59:35;5.40;99.90
7192;DHT22;3637;51.494;11.958;2022-12-07T14:02:55;5.60;99.90
7192;DHT22;3637;51.494;11.958;2022-12-07T14:06:16;5.20;99.90
7192;DHT22;3637;51.494;11.958;2022-12-07T14:09:21;5.20;99.90
7192;DHT22;3637;51.494;11.958;2022-12-07T14:12:25;5.50;99.90
7192;DHT22;3637;51.494;11.958;2022-12-07T14:15:30;5.00;99.90
7192;DHT22;3637;51.494;11.958;2022-12-07T14:18:39;5.10;99.90
7192;DHT22;3637;51.494;11.958;2022-12-07T14:21:42;5.10;99.90
7192;DHT22;3637;51.494;11.958;2022-12-07T14:24:45;5.30;99.90
7192;DHT22;3637;51.494;11.958;2022-12-07T14:27:50;5.70;99.90
7192;DHT22;3637;51.494;11.958;2022-12-07T14:30:53;5.40;99.90
7192;DHT22;3637;51.494;11.958;2022-12-07T14:33:58;4.90;99.90
7192;DHT22;3637;51.494;11.958;2022-12-07T14:37:00;4.90;99.90
7192;DHT22;3637;51.494;11.958;2022-12-07T14:40:05;5.00;99.90
7192;DHT22;3637;51.494;11.958;2022-12-07T14:43:12;5.00;99.90
7192;DHT22;3637;51.494;11.958;2022-12-07T14:46:15;5.40;99.90
7192;DHT22;3637;51.494;11.958;2022-12-07T14:49:18;5.20;99.90
7192;DHT22;3637;51.494;11.958;2022-12-07T14:52:28;4.90;99.90
7192;DHT22;3637;51.494;11.958;2022-12-07T14:55:32;4.90;99.90
7192;DHT22;3637;51.494;11.958;2022-12-07T14:58:34;4.80;99.90
7192;DHT22;3637;51.494;11.958;2022-12-07T15:01:36;5.20;99.90
7192;DHT22;3637;51.494;11.958;2022-12-07T15:04:38;5.40;99.90
7192;DHT22;3637;51.494;11.958;2022-12-07T15:07:40;4.90;99.90
7192;DHT22;3637;51.494;11.958;2022-12-07T15:10:44;4.90;99.90
7192;DHT22;3637;51.494;11.958;2022-12-07T15:13:46;4.80;99.90
7192;DHT22;3637;51.494;11.958;2022-12-07T15:17:05;5.10;99.90
7192;DHT22;3637;51.494;11.958;2022-12-07T15:20:11;4.80;99.90
7192;DHT22;3637;51.494;11.958;2022-12-07T15:23:13;4.80;99.90
7192;DHT22;3637;51.494;11.958;2022-12-07T15:26:17;4.80;99.90
7192;DHT22;3637;51.494;11.958;2022-12-07T15:29:19;4.80;99.90
7192;DHT22;3637;51.494;11.958;2022-12-07T15:32:21;5.30;99.90
7192;DHT22;3637;51.494;11.958;2022-12-07T15:35:23;4.40;99.90
7192;DHT22;3637;51.494;11.958;2022-12-07T15:38:25;4.20;99.90
7192;DHT22;3637;51.494;11.958;2022-12-07T15:41:30;4.00;99.90
7192;DHT22;3637;51.494;11.958;2022-12-07T15:44:32;4.20;99.90
7192;DHT22;3637;51.494;11.958;2022-12-07T15:47:51;3.90;99.90
7192;DHT22;3637;51.494;11.958;2022-12-07T15:51:02;3.80;99.90
7192;DHT22;3637;51.494;11.958;2022-12-07T15:54:04;3.90;99.90
7192;DHT22;3637;51.494;11.958;2022-12-07T15:57:07;4.10;99.90
7192;DHT22;3637;51.494;11.958;2022-12-07T16:00:10;4.60;99.90
7192;DHT22;3637;51.494;11.958;2022-12-07T16:03:13;4.20;99.90
7192;DHT22;3637;51.494;11.958;2022-12-07T16:06:15;4.10;99.90
7192;DHT22;3637;51.494;11.958;2022-12-07T16:09:18;4.10;99.90
7192;DHT22;3637;51.494;11.958;2022-12-07T16:12:21;4.20;99.90
7192;DHT22;3637;51.494;11.958;2022-12-07T16:15:23;4.20;99.90
7192;DHT22;3637;51.494;11.958;2022-12-07T16:18:27;4.20;99.90
7192;DHT22;3637;51.494;11.958;2022-12-07T16:21:29;4.20;99.90
7192;DHT22;3637;51.494;11.958;2022-12-07T16:24:31;4.10;99.90
7192;DHT22;3637;51.494;11.958;2022-12-07T16:27:34;4.00;99.90
7192;DHT22;3637;51.494;11.958;2022-12-07T16:30:36;4.10;99.90
7192;DHT22;3637;51.494;11.958;2022-12-07T16:33:39;4.40;99.90
7192;DHT22;3637;51.494;11.958;2022-12-07T16:36:41;4.30;99.90
7192;DHT22;3637;51.494;11.958;2022-12-07T16:39:43;4.50;99.90
7192;DHT22;3637;51.494;11.958;2022-12-07T16:42:47;4.20;99.90
7192;DHT22;3637;51.494;11.958;2022-12-07T16:45:49;4.70;99.90
7192;DHT22;3637;51.494;11.958;2022-12-07T16:48:51;4.20;99.90
7192;DHT22;3637;51.494;11.958;2022-12-07T16:51:53;4.20;99.90
7192;DHT22;3637;51.494;11.958;2022-12-07T16:54:58;4.30;99.90
7192;DHT22;3637;51.494;11.958;2022-12-07T16:58:01;4.60;99.90
7192;DHT22;3637;51.494;11.958;2022-12-07T17:01:09;5.10;99.90
7192;DHT22;3637;51.494;11.958;2022-12-07T17:04:11;4.30;99.90
7192;DHT22;3637;51.494;11.958;2022-12-07T17:07:13;3.90;99.90
7192;DHT22;3637;51.494;11.958;2022-12-07T17:10:15;4.30;99.90
7192;DHT22;3637;51.494;11.958;2022-12-07T17:13:18;4.30;99.90
7192;DHT22;3637;51.494;11.958;2022-12-07T17:16:38;4.60;99.90
7192;DHT22;3637;51.494;11.958;2022-12-07T17:19:40;4.20;99.90
7192;DHT22;3637;51.494;11.958;2022-12-07T17:22:43;4.20;99.90
7192;DHT22;3637;51.494;11.958;2022-12-07T17:25:45;4.50;99.90
7192;DHT22;3637;51.494;11.958;2022-12-07T17:28:48;4.10;99.90
7192;DHT22;3637;51.494;11.958;2022-12-07T17:31:50;4.10;99.90
7192;DHT22;3637;51.494;11.958;2022-12-07T17:34:52;4.40;99.90
7192;DHT22;3637;51.494;11.958;2022-12-07T17:37:54;4.50;99.90
7192;DHT22;3637;51.494;11.958;2022-12-07T17:40:56;4.10;99.90
7192;DHT22;3637;51.494;11.958;2022-12-07T17:44:00;4.70;99.90
7192;DHT22;3637;51.494;11.958;2022-12-07T17:47:02;4.10;99.90
7192;DHT22;3637;51.494;11.958;2022-12-07T17:50:05;5.10;99.90
7192;DHT22;3637;51.494;11.958;2022-12-07T17:53:10;4.10;99.90
7192;DHT22;3637;51.494;11.958;2022-12-07T17:56:11;4.10;99.90
7192;DHT22;3637;51.494;11.958;2022-12-07T17:59:16;4.10;99.90
7192;DHT22;3637;51.494;11.958;2022-12-07T18:02:18;4.00;99.90
7192;DHT22;3637;51.494;11.958;2022-12-07T18:05:20;4.80;99.90
7192;DHT22;3637;51.494;11.958;2022-12-07T18:08:22;4.80;99.90
7192;DHT22;3637;51.494;11.958;2022-12-07T18:11:25;4.00;99.90
7192;DHT22;3637;51.494;11.958;2022-12-07T18:14:28;3.90;99.90
7192;DHT22;3637;51.494;11.958;2022-12-07T18:17:30;4.60;99.90
7192;DHT22;3637;51.494;11.958;2022-12-07T18:20:32;3.90;99.90
7192;DHT22;3637;51.494;11.958;2022-12-07T18:23:34;3.90;99.90
7192;DHT22;3637;51.494;11.958;2022-12-07T18:26:36;4.40;99.90
7192;DHT22;3637;51.494;11.958;2022-12-07T18:29:39;3.90;99.90
7192;DHT22;3637;51.494;11.958;2022-12-07T18:32:41;4.00;99.90
7192;DHT22;3637;51.494;11.958;2022-12-07T18:35:44;4.00;99.90
7192;DHT22;3637;51.494;11.958;2022-12-07T18:38:46;4.00;99.90
7192;DHT22;3637;51.494;11.958;2022-12-07T18:41:48;4.00;99.90
7192;DHT22;3637;51.494;11.958;2022-12-07T18:44:51;4.10;99.90
7192;DHT22;3637;51.494;11.958;2022-12-07T18:47:53;4.10;99.90
7192;DHT22;3637;51.494;11.958;2022-12-07T18:51:00;4.50;99.90
7192;DHT22;3637;51.494;11.958;2022-12-07T18:54:02;4.10;99.90
7192;DHT22;3637;51.494;11.958;2022-12-07T18:57:04;4.20;99.90
7192;DHT22;3637;51.494;11.958;2022-12-07T19:00:08;4.10;99.90
7192;DHT22;3637;51.494;11.958;2022-12-07T19:03:10;4.00;99.90
7192;DHT22;3637;51.494;11.958;2022-12-07T19:06:14;4.30;99.90
7192;DHT22;3637;51.494;11.958;2022-12-07T19:09:17;4.70;99.90
7192;DHT22;3637;51.494;11.958;2022-12-07T19:12:19;4.40;99.90
7192;DHT22;3637;51.494;11.958;2022-12-07T19:15:23;4.40;99.90
7192;DHT22;3637;51.494;11.958;2022-12-07T19:18:25;4.10;99.90
7192;DHT22;3637;51.494;11.958;2022-12-07T19:21:27;4.10;99.90
7192;DHT22;3637;51.494;11.958;2022-12-07T19:24:29;4.40;99.90
7192;DHT22;3637;51.494;11.958;2022-12-07T19:27:32;4.20;99.90
7192;DHT22;3637;51.494;11.958;2022-12-07T19:30:36;4.20;99.90
7192;DHT22;3637;51.494;11.958;2022-12-07T19:33:39;4.60;99.90
7192;DHT22;3637;51.494;11.958;2022-12-07T19:36:41;4.20;99.90
7192;DHT22;3637;51.494;11.958;2022-12-07T19:39:43;5.10;99.90
7192;DHT22;3637;51.494;11.958;2022-12-07T19:42:46;4.30;99.90
7192;DHT22;3637;51.494;11.958;2022-12-07T19:45:49;4.20;99.90
7192;DHT22;3637;51.494;11.958;2022-12-07T19:48:51;4.20;99.90
7192;DHT22;3637;51.494;11.958;2022-12-07T19:51:54;4.30;99.90
7192;DHT22;3637;51.494;11.958;2022-12-07T19:54:56;4.30;99.90
7192;DHT22;3637;51.494;11.958;2022-12-07T19:57:58;4.40;99.90
7192;DHT22;3637;51.494;11.958;2022-12-07T20:01:03;4.40;99.90
7192;DHT22;3637;51.494;11.958;2022-12-07T20:04:07;4.40;99.90
7192;DHT22;3637;51.494;11.958;2022-12-07T20:07:10;5.40;99.90
7192;DHT22;3637;51.494;11.958;2022-12-07T20:10:12;4.90;99.90
7192;DHT22;3637;51.494;11.958;2022-12-07T20:13:15;4.50;99.90